createdAt,value
2019-02-23T00:00:22.203Z,100.00
2019-02-23T00:02:57.082Z,100.00
2019-02-23T00:05:29.958Z,100.00
2019-02-23T00:08:03.592Z,100.00
2019-02-23T00:10:38.406Z,100.00
2019-02-23T00:13:10.929Z,100.00
2019-02-23T00:15:46.153Z,100.00
2019-02-23T00:18:18.656Z,100.00
2019-02-23T00:20:51.342Z,100.00
2019-02-23T00:23:25.663Z,100.00
2019-02-23T00:25:58.062Z,100.00
2019-02-23T00:28:32.436Z,100.00
2019-02-23T00:31:05.691Z,100.00
2019-02-23T00:33:40.380Z,100.00
2019-02-23T00:36:13.464Z,100.00
2019-02-23T00:38:47.124Z,100.00
2019-02-23T00:41:21.648Z,100.00
2019-02-23T00:43:59.321Z,100.00
2019-02-23T00:46:32.443Z,100.00
2019-02-23T00:49:04.820Z,100.00
2019-02-23T00:51:37.724Z,100.00
2019-02-23T00:54:10.807Z,100.00
2019-02-23T00:56:43.577Z,100.00
2019-02-23T00:59:16.676Z,100.00
2019-02-23T01:01:51.333Z,100.00
2019-02-23T01:04:28.641Z,100.00
2019-02-23T01:07:02.804Z,100.00
2019-02-23T01:09:36.420Z,100.00
2019-02-23T01:12:08.539Z,100.00
2019-02-23T01:14:42.039Z,100.00
2019-02-23T01:17:15.656Z,100.00
2019-02-23T01:19:48.862Z,100.00
2019-02-23T01:22:21.718Z,100.00
2019-02-23T01:24:54.403Z,100.00
2019-02-23T01:27:27.278Z,100.00
2019-02-23T01:30:01.307Z,100.00
2019-02-23T01:32:37.170Z,100.00
2019-02-23T01:35:13.778Z,100.00
2019-02-23T01:37:46.617Z,100.00
2019-02-23T01:40:20.419Z,100.00
2019-02-23T01:42:53.544Z,100.00
2019-02-23T01:45:27.102Z,100.00
2019-02-23T01:48:01.119Z,100.00
2019-02-23T01:50:33.244Z,100.00
2019-02-23T01:53:06.502Z,100.00
2019-02-23T01:55:39.187Z,100.00
2019-02-23T01:58:12.577Z,100.00
2019-02-23T02:00:45.051Z,100.00
2019-02-23T02:03:18.268Z,100.00
2019-02-23T02:05:49.286Z,100.00
2019-02-23T02:08:22.088Z,100.00
2019-02-23T02:10:55.171Z,100.00
2019-02-23T02:13:28.520Z,100.00
2019-02-23T02:16:00.900Z,100.00
2019-02-23T02:18:34.054Z,100.00
2019-02-23T02:21:07.133Z,100.00
2019-02-23T02:23:38.835Z,100.00
2019-02-23T02:26:11.454Z,100.00
2019-02-23T02:28:45.263Z,100.00
2019-02-23T02:31:18.413Z,100.00
2019-02-23T02:34:08.547Z,100.00
2019-02-23T02:36:41.725Z,100.00
2019-02-23T02:39:16.030Z,100.00
2019-02-23T02:41:49.370Z,100.00
2019-02-23T02:44:21.939Z,100.00
2019-02-23T02:46:54.935Z,100.00
2019-02-23T02:49:27.725Z,100.00
2019-02-23T02:52:00.446Z,100.00
2019-02-23T02:54:33.308Z,100.00
2019-02-23T02:57:05.862Z,100.00
2019-02-23T02:59:39.030Z,100.00
2019-02-23T03:02:11.488Z,100.00
2019-02-23T03:04:44.192Z,100.00
2019-02-23T03:07:16.931Z,100.00
2019-02-23T03:09:49.849Z,100.00
2019-02-23T03:12:23.146Z,100.00
2019-02-23T03:14:55.140Z,100.00
2019-02-23T03:17:27.510Z,100.00
2019-02-23T03:20:00.553Z,100.00
2019-02-23T03:22:33.038Z,100.00
2019-02-23T03:25:05.516Z,100.00
2019-02-23T03:27:38.181Z,100.00
2019-02-23T03:30:12.245Z,100.00
2019-02-23T03:32:45.329Z,100.00
2019-02-23T03:35:17.125Z,100.00
2019-02-23T03:37:49.912Z,100.00
2019-02-23T03:40:22.116Z,100.00
2019-02-23T03:42:55.488Z,100.00
2019-02-23T03:45:28.025Z,100.00
2019-02-23T03:48:01.907Z,100.00
2019-02-23T03:50:34.358Z,100.00
2019-02-23T03:53:07.012Z,100.00
2019-02-23T03:55:39.395Z,100.00
2019-02-23T03:58:13.027Z,100.00
2019-02-23T04:00:46.282Z,100.00
2019-02-23T04:03:19.020Z,100.00
2019-02-23T04:05:52.424Z,100.00
2019-02-23T04:08:24.875Z,100.00
2019-02-23T04:10:57.911Z,100.00
2019-02-23T04:13:30.645Z,100.00
2019-02-23T04:16:04.564Z,100.00
2019-02-23T04:18:37.578Z,100.00
2019-02-23T04:21:09.570Z,100.00
2019-02-23T04:23:42.260Z,100.00
2019-02-23T04:26:15.337Z,100.00
2019-02-23T04:28:48.158Z,100.00
2019-02-23T04:31:21.624Z,100.00
2019-02-23T04:33:54.863Z,100.00
2019-02-23T04:36:27.320Z,100.00
2019-02-23T04:39:01.674Z,100.00
2019-02-23T04:41:35.324Z,100.00
2019-02-23T04:44:08.161Z,100.00
2019-02-23T04:46:40.285Z,100.00
2019-02-23T04:49:13.372Z,100.00
2019-02-23T04:51:45.260Z,100.00
2019-02-23T04:54:17.607Z,100.00
2019-02-23T04:56:50.164Z,100.00
2019-02-23T04:59:22.837Z,100.00
2019-02-23T05:01:55.906Z,100.00
2019-02-23T05:04:28.683Z,100.00
2019-02-23T05:07:01.141Z,100.00
2019-02-23T05:09:34.295Z,100.00
2019-02-23T05:12:05.573Z,100.00
2019-02-23T05:14:38.312Z,100.00
2019-02-23T05:17:11.099Z,100.00
2019-02-23T05:19:43.841Z,100.00
2019-02-23T05:22:16.614Z,100.00
2019-02-23T05:24:49.347Z,100.00
2019-02-23T05:27:22.075Z,100.00
2019-02-23T05:29:55.133Z,100.00
2019-02-23T05:32:27.629Z,100.00
2019-02-23T05:35:00.774Z,100.00
2019-02-23T05:37:33.339Z,100.00
2019-02-23T05:40:06.545Z,100.00
2019-02-23T05:42:38.024Z,100.00
2019-02-23T05:45:10.494Z,99.97
2019-02-23T05:47:43.615Z,100.00
2019-02-23T05:50:16.141Z,100.00
2019-02-23T05:52:49.638Z,100.00
2019-02-23T05:55:22.511Z,100.00
2019-02-23T05:57:54.949Z,100.00
2019-02-23T06:00:27.364Z,100.00
2019-02-23T06:02:59.732Z,100.00
2019-02-23T06:05:32.902Z,100.00
2019-02-23T06:08:04.180Z,100.00
2019-02-23T06:10:36.864Z,100.00
2019-02-23T06:13:10.249Z,100.00
2019-02-23T06:15:43.081Z,100.00
2019-02-23T06:18:15.576Z,100.00
2019-02-23T06:20:49.350Z,100.00
2019-02-23T06:23:22.297Z,100.00
2019-02-23T06:25:55.372Z,100.00
2019-02-23T06:28:28.497Z,100.00
2019-02-23T06:31:04.494Z,100.00
2019-02-23T06:33:37.028Z,100.00
2019-02-23T06:36:09.498Z,100.00
2019-02-23T06:38:43.178Z,100.00
2019-02-23T06:41:16.576Z,100.00
2019-02-23T06:43:48.671Z,100.00
2019-02-23T06:46:21.179Z,100.00
2019-02-23T06:48:54.227Z,100.00
2019-02-23T06:51:27.646Z,100.00
2019-02-23T06:54:00.426Z,100.00
2019-02-23T06:56:34.536Z,100.00
2019-02-23T06:59:07.984Z,100.00
2019-02-23T07:01:41.305Z,100.00
2019-02-23T07:04:14.167Z,100.00
2019-02-23T07:06:48.119Z,100.00
2019-02-23T07:09:21.170Z,100.00
2019-02-23T07:11:52.856Z,100.00
2019-02-23T07:14:24.920Z,100.00
2019-02-23T07:16:58.699Z,100.00
2019-02-23T07:19:31.772Z,100.00
2019-02-23T07:22:03.108Z,100.00
2019-02-23T07:24:36.298Z,100.00
2019-02-23T07:27:09.839Z,100.00
2019-02-23T07:29:41.986Z,100.00
2019-02-23T07:32:14.421Z,100.00
2019-02-23T07:34:47.417Z,99.84
2019-02-23T07:37:20.243Z,99.63
2019-02-23T07:39:52.470Z,99.59
2019-02-23T07:42:25.188Z,99.23
2019-02-23T07:44:57.650Z,99.06
2019-02-23T07:47:30.279Z,98.71
2019-02-23T07:50:03.764Z,98.38
2019-02-23T07:52:36.583Z,97.93
2019-02-23T07:55:08.840Z,97.27
2019-02-23T07:57:41.534Z,96.62
2019-02-23T08:00:15.050Z,96.07
2019-02-23T08:02:48.144Z,95.57
2019-02-23T08:05:20.801Z,94.65
2019-02-23T08:07:54.653Z,94.09
2019-02-23T08:10:27.180Z,93.49
2019-02-23T08:13:00.024Z,92.89
2019-02-23T08:15:33.319Z,92.36
2019-02-23T08:18:05.427Z,91.53
2019-02-23T08:20:37.427Z,91.14
2019-02-23T08:23:10.714Z,90.55
2019-02-23T08:25:41.695Z,89.55
2019-02-23T08:28:14.652Z,88.93
2019-02-23T08:30:46.043Z,88.32
2019-02-23T08:33:18.944Z,87.80
2019-02-23T08:35:51.052Z,87.49
2019-02-23T08:38:23.686Z,86.68
2019-02-23T08:40:56.797Z,86.32
2019-02-23T08:43:29.274Z,85.66
2019-02-23T08:46:02.265Z,85.25
2019-02-23T08:48:36.021Z,84.41
2019-02-23T08:51:08.505Z,83.89
2019-02-23T08:53:41.943Z,83.58
2019-02-23T08:56:14.463Z,82.71
2019-02-23T08:58:47.065Z,82.68
2019-02-23T09:01:20.187Z,81.88
2019-02-23T09:03:53.005Z,81.86
2019-02-23T09:06:26.203Z,81.45
2019-02-23T09:08:59.852Z,81.07
2019-02-23T09:11:35.885Z,80.34
2019-02-23T09:14:08.468Z,79.51
2019-02-23T09:16:41.846Z,79.16
2019-02-23T09:19:14.256Z,78.76
2019-02-23T09:21:47.939Z,78.40
2019-02-23T09:24:20.405Z,78.08
2019-02-23T09:26:53.620Z,77.50
2019-02-23T09:29:25.869Z,76.88
2019-02-23T09:31:58.777Z,76.11
2019-02-23T09:34:33.138Z,76.17
2019-02-23T09:37:06.735Z,75.28
2019-02-23T09:39:39.161Z,74.74
2019-02-23T09:42:12.637Z,74.25
2019-02-23T09:44:46.012Z,73.72
2019-02-23T09:47:18.854Z,72.92
2019-02-23T09:49:52.395Z,73.43
2019-02-23T09:52:24.845Z,71.99
2019-02-23T09:54:57.932Z,71.89
2019-02-23T09:57:30.538Z,71.85
2019-02-23T10:00:03.676Z,71.39
2019-02-23T10:02:36.514Z,70.62
2019-02-23T10:05:09.771Z,70.24
2019-02-23T10:07:41.190Z,69.89
2019-02-23T10:10:13.592Z,69.15
2019-02-23T10:12:46.041Z,68.13
2019-02-23T10:15:19.178Z,68.16
2019-02-23T10:17:52.617Z,67.09
2019-02-23T10:20:25.510Z,66.58
2019-02-23T10:22:58.986Z,65.86
2019-02-23T10:25:31.657Z,65.95
2019-02-23T10:28:04.335Z,65.61
2019-02-23T10:30:37.138Z,64.84
2019-02-23T10:33:11.021Z,64.20
2019-02-23T10:35:43.965Z,63.89
2019-02-23T10:38:17.333Z,63.17
2019-02-23T10:40:51.312Z,63.03
2019-02-23T10:43:24.590Z,62.67
2019-02-23T10:45:58.055Z,61.73
2019-02-23T10:48:31.628Z,61.14
2019-02-23T10:51:03.576Z,60.99
2019-02-23T10:53:37.569Z,61.14
2019-02-23T10:56:10.876Z,59.81
2019-02-23T10:58:43.022Z,58.93
2019-02-23T11:01:16.351Z,59.69
2019-02-23T11:03:50.414Z,58.90
2019-02-23T11:06:24.249Z,58.30
2019-02-23T11:08:57.597Z,57.92
2019-02-23T11:11:30.075Z,57.76
2019-02-23T11:14:04.205Z,57.20
2019-02-23T11:16:37.697Z,57.24
2019-02-23T11:19:09.498Z,56.00
2019-02-23T11:21:41.957Z,56.28
2019-02-23T11:24:18.314Z,55.69
2019-02-23T11:26:51.576Z,55.45
2019-02-23T11:29:24.685Z,54.17
2019-02-23T11:31:57.099Z,54.31
2019-02-23T11:34:30.892Z,54.07
2019-02-23T11:37:03.869Z,54.22
2019-02-23T11:39:37.011Z,53.80
2019-02-23T11:42:08.766Z,52.84
2019-02-23T11:44:42.277Z,52.29
2019-02-23T11:47:15.660Z,52.06
2019-02-23T11:49:47.466Z,51.47
2019-02-23T11:52:22.043Z,51.75
2019-02-23T11:54:54.820Z,51.00
2019-02-23T11:57:28.707Z,52.40
2019-02-23T12:00:02.470Z,49.67
2019-02-23T12:02:35.129Z,50.69
2019-02-23T12:05:08.148Z,51.61
2019-02-23T12:07:40.527Z,51.34
2019-02-23T12:10:13.777Z,50.66
2019-02-23T12:12:47.443Z,50.70
2019-02-23T12:15:20.201Z,48.88
2019-02-23T12:17:53.036Z,49.67
2019-02-23T12:20:26.786Z,49.62
2019-02-23T12:22:59.929Z,49.19
2019-02-23T12:25:33.377Z,49.63
2019-02-23T12:28:06.411Z,49.43
2019-02-23T12:30:40.088Z,48.59
2019-02-23T12:33:13.521Z,47.98
2019-02-23T12:35:46.914Z,47.59
2019-02-23T12:38:19.106Z,48.05
2019-02-23T12:40:52.105Z,46.83
2019-02-23T12:43:25.251Z,44.60
2019-02-23T12:45:58.701Z,45.25
2019-02-23T12:48:32.416Z,44.47
2019-02-23T12:51:05.379Z,43.77
2019-02-23T12:53:38.685Z,42.49
2019-02-23T12:56:11.788Z,41.50
2019-02-23T12:58:44.503Z,42.10
2019-02-23T13:01:18.057Z,41.86
2019-02-23T13:03:51.464Z,42.18
2019-02-23T13:06:22.798Z,40.49
2019-02-23T13:09:19.044Z,42.08
2019-02-23T13:12:01.063Z,42.19
2019-02-23T13:14:47.540Z,41.73
2019-02-23T13:17:58.074Z,43.28
2019-02-23T13:20:54.819Z,42.29
2019-02-23T13:24:28.753Z,41.24
2019-02-23T13:27:59.831Z,41.34
2019-02-23T13:31:05.516Z,40.90
2019-02-23T13:34:50.541Z,39.72
2019-02-23T13:37:58.743Z,41.41
2019-02-23T13:41:31.707Z,40.01
2019-02-23T13:44:40.152Z,40.03
2019-02-23T13:48:21.246Z,40.13
2019-02-23T13:51:59.454Z,39.37
2019-02-23T13:55:46.823Z,39.08
2019-02-23T13:58:37.164Z,40.20
2019-02-23T14:02:04.821Z,40.95
2019-02-23T14:05:17.228Z,38.95
2019-02-23T14:08:57.681Z,40.06
2019-02-23T14:12:18.924Z,40.73
2019-02-23T14:15:36.640Z,41.57
2019-02-23T14:18:57.351Z,39.31
2019-02-23T14:22:19.804Z,40.72
2019-02-23T14:25:56.972Z,39.95
2019-02-23T14:28:52.725Z,39.76
2019-02-23T14:32:16.586Z,39.47
2019-02-23T14:36:04.940Z,41.22
2019-02-23T14:39:24.491Z,42.07
2019-02-23T14:42:52.161Z,40.09
2019-02-23T14:46:28.976Z,40.78
2019-02-23T14:50:03.795Z,41.80
2019-02-23T14:53:22.245Z,42.49
2019-02-23T14:56:55.315Z,42.54
2019-02-23T15:00:15.334Z,43.27
2019-02-23T15:03:55.354Z,42.28
2019-02-23T15:07:19.704Z,43.72
2019-02-23T15:11:01.217Z,43.33
2019-02-23T15:14:49.999Z,43.20
2019-02-23T15:18:02.502Z,44.79
2019-02-23T15:21:14.251Z,44.88
2019-02-23T15:28:37.648Z,43.76
2019-02-23T15:31:54.146Z,46.48
2019-02-23T15:35:10.533Z,46.38
2019-02-23T15:38:34.257Z,44.93
2019-02-23T15:42:09.489Z,46.84
2019-02-23T15:45:24.742Z,45.63
2019-02-23T15:48:38.528Z,46.38
2019-02-23T15:51:13.758Z,45.89
2019-02-23T15:53:47.598Z,45.90
2019-02-23T15:56:20.846Z,45.37
2019-02-23T15:58:53.223Z,47.37
2019-02-23T16:01:26.280Z,47.74
2019-02-23T16:03:59.161Z,46.40
2019-02-23T16:06:31.808Z,47.51
2019-02-23T16:09:05.070Z,47.56
2019-02-23T16:11:37.919Z,47.70
2019-02-23T16:14:10.416Z,47.49
2019-02-23T16:16:43.554Z,47.56
2019-02-23T16:19:16.395Z,47.75
2019-02-23T16:21:52.729Z,48.47
2019-02-23T16:24:24.147Z,47.99
2019-02-23T16:26:57.151Z,48.07
2019-02-23T16:29:30.218Z,46.66
2019-02-23T16:32:02.881Z,49.45
2019-02-23T16:34:35.721Z,49.41
2019-02-23T16:37:08.117Z,49.31
2019-02-23T16:39:41.582Z,48.50
2019-02-23T16:42:15.153Z,50.14
2019-02-23T16:44:49.705Z,50.54
2019-02-23T16:47:23.127Z,48.94
2019-02-23T16:49:56.632Z,50.18
2019-02-23T16:52:30.032Z,49.41
2019-02-23T16:55:03.845Z,49.70
2019-02-23T16:57:37.170Z,51.35
2019-02-23T17:00:10.289Z,50.48
2019-02-23T17:02:42.812Z,51.28
2019-02-23T17:05:15.864Z,52.25
2019-02-23T17:07:49.360Z,52.08
2019-02-23T17:10:22.742Z,52.54
2019-02-23T17:12:55.470Z,52.01
2019-02-23T17:15:28.506Z,51.63
2019-02-23T17:18:01.574Z,52.82
2019-02-23T17:20:34.100Z,53.40
2019-02-23T17:23:08.207Z,52.66
2019-02-23T17:25:42.153Z,52.53
2019-02-23T17:28:15.999Z,52.07
2019-02-23T17:30:49.451Z,52.32
2019-02-23T17:33:22.275Z,51.53
2019-02-23T17:35:55.664Z,53.79
2019-02-23T17:38:29.072Z,53.04
2019-02-23T17:41:02.005Z,53.01
2019-02-23T17:43:35.034Z,53.52
2019-02-23T17:46:08.805Z,54.70
2019-02-23T17:48:42.889Z,56.13
2019-02-23T17:51:16.222Z,55.18
2019-02-23T17:53:50.020Z,55.91
2019-02-23T17:56:23.470Z,55.75
2019-02-23T17:58:56.351Z,54.65
2019-02-23T18:01:31.257Z,55.89
2019-02-23T18:04:04.353Z,58.72
2019-02-23T18:06:37.699Z,57.84
2019-02-23T18:09:11.167Z,56.88
2019-02-23T18:11:44.253Z,56.95
2019-02-23T18:14:15.749Z,58.73
2019-02-23T18:16:48.272Z,58.94
2019-02-23T18:19:21.015Z,59.11
2019-02-23T18:21:54.464Z,59.88
2019-02-23T18:24:28.201Z,59.95
2019-02-23T18:27:01.559Z,59.50
2019-02-23T18:29:33.933Z,58.62
2019-02-23T18:32:06.443Z,58.11
2019-02-23T18:34:38.968Z,57.51
2019-02-23T18:37:12.376Z,58.16
2019-02-23T18:40:03.149Z,59.29
2019-02-23T18:42:36.448Z,58.24
2019-02-23T18:45:09.389Z,57.57
2019-02-23T18:47:43.286Z,57.86
2019-02-23T18:50:16.743Z,58.86
2019-02-23T18:52:50.233Z,59.01
2019-02-23T18:55:46.699Z,58.59
2019-02-23T18:58:20.579Z,59.20
2019-02-23T19:00:53.985Z,59.46
2019-02-23T19:03:26.854Z,59.94
2019-02-23T19:05:59.622Z,59.59
2019-02-23T19:08:32.561Z,60.59
2019-02-23T19:11:05.108Z,60.48
2019-02-23T19:13:38.970Z,62.81
2019-02-23T19:16:13.488Z,62.88
2019-02-23T19:18:46.334Z,63.47
2019-02-23T19:21:19.216Z,63.60
2019-02-23T19:23:52.877Z,63.78
2019-02-23T19:26:27.002Z,63.75
2019-02-23T19:29:00.179Z,64.14
2019-02-23T19:31:33.580Z,65.58
2019-02-23T19:34:04.664Z,65.50
2019-02-23T19:36:37.437Z,64.70
2019-02-23T19:39:11.420Z,65.29
2019-02-23T19:41:43.545Z,64.86
2019-02-23T19:44:16.533Z,64.70
2019-02-23T19:46:59.073Z,64.39
2019-02-23T19:49:31.876Z,64.47
2019-02-23T19:52:05.271Z,63.14
2019-02-23T19:54:38.403Z,63.41
2019-02-23T19:57:11.646Z,64.55
2019-02-23T19:59:44.528Z,64.09
2019-02-23T20:02:17.773Z,64.56
2019-02-23T20:04:50.883Z,64.84
2019-02-23T20:07:23.717Z,64.30
2019-02-23T20:09:56.823Z,64.77
2019-02-23T20:12:28.280Z,64.76
2019-02-23T20:15:01.051Z,65.04
2019-02-23T20:17:33.804Z,64.82
2019-02-23T20:20:07.044Z,65.49
2019-02-23T20:22:38.480Z,65.22
2019-02-23T20:25:11.361Z,65.07
2019-02-23T20:27:42.731Z,65.35
2019-02-23T20:30:15.354Z,65.06
2019-02-23T20:32:49.087Z,63.22
2019-02-23T20:35:21.291Z,62.27
2019-02-23T20:37:55.056Z,61.64
2019-02-23T20:40:28.031Z,61.17
2019-02-23T20:42:59.917Z,60.53
2019-02-23T20:45:32.649Z,61.10
2019-02-23T20:48:05.421Z,61.33
2019-02-23T20:50:40.203Z,59.83
2019-02-23T20:53:13.369Z,60.85
2019-02-23T20:55:44.699Z,61.82
2019-02-23T20:58:17.199Z,62.38
2019-02-23T21:00:50.058Z,62.44
2019-02-23T21:03:24.142Z,63.53
2019-02-23T21:05:57.794Z,64.22
2019-02-23T21:08:30.450Z,65.31
2019-02-23T21:11:03.238Z,65.17
2019-02-23T21:13:37.641Z,65.73
2019-02-23T21:16:10.200Z,66.37
2019-02-23T21:18:43.417Z,67.29
2019-02-23T21:21:15.528Z,67.59
2019-02-23T21:23:48.188Z,67.62
2019-02-23T21:26:22.916Z,68.07
2019-02-23T21:28:55.856Z,68.63
2019-02-23T21:31:28.911Z,68.33
2019-02-23T21:34:01.960Z,68.59
2019-02-23T21:36:34.792Z,68.47
2019-02-23T21:39:09.000Z,68.83
2019-02-23T21:41:41.956Z,69.47
2019-02-23T21:44:14.069Z,69.43
2019-02-23T21:46:46.742Z,69.02
2019-02-23T21:49:20.712Z,69.54
2019-02-23T21:51:54.664Z,69.97
2019-02-23T21:54:28.462Z,70.32
2019-02-23T21:57:01.289Z,70.11
2019-02-23T21:59:33.890Z,70.71
2019-02-23T22:02:08.276Z,70.61
2019-02-23T22:04:40.832Z,70.57
2019-02-23T22:07:13.885Z,71.10
2019-02-23T22:09:46.960Z,71.18
2019-02-23T22:12:20.306Z,70.97
2019-02-23T22:14:53.120Z,70.98
2019-02-23T22:17:28.968Z,71.47
2019-02-23T22:20:01.495Z,71.60
2019-02-23T22:22:33.879Z,71.50
2019-02-23T22:25:06.817Z,71.57
2019-02-23T22:27:42.872Z,71.73
2019-02-23T22:30:16.031Z,71.29
2019-02-23T22:32:48.818Z,71.16
2019-02-23T22:35:22.000Z,71.14
2019-02-23T22:37:53.103Z,71.09
2019-02-23T22:40:26.294Z,70.93
2019-02-23T22:42:59.035Z,70.74
2019-02-23T22:45:32.334Z,70.68
2019-02-23T22:48:05.724Z,71.02
2019-02-23T22:50:39.857Z,70.97
2019-02-23T22:53:12.632Z,70.23
2019-02-23T22:55:46.724Z,70.42
2019-02-23T22:58:20.789Z,70.47
2019-02-23T23:00:55.457Z,70.63
2019-02-23T23:03:57.625Z,70.79
2019-02-23T23:06:31.606Z,70.87
2019-02-23T23:09:05.689Z,71.11
2019-02-23T23:11:38.871Z,70.86
2019-02-23T23:14:11.871Z,71.04
2019-02-23T23:16:45.040Z,70.88
2019-02-23T23:19:17.788Z,70.85
2019-02-23T23:21:50.598Z,70.72
2019-02-23T23:24:22.992Z,70.50
2019-02-23T23:26:57.861Z,70.68
2019-02-23T23:29:30.692Z,70.42
2019-02-23T23:32:03.049Z,70.68
2019-02-23T23:34:35.735Z,70.75
2019-02-23T23:37:09.350Z,71.11
2019-02-23T23:39:42.245Z,71.30
2019-02-23T23:42:17.486Z,71.25
2019-02-23T23:44:51.844Z,71.45
2019-02-23T23:47:24.919Z,71.42
2019-02-23T23:49:56.755Z,71.71
2019-02-23T23:52:31.064Z,71.96
2019-02-23T23:55:03.872Z,72.33
2019-02-23T23:57:40.094Z,72.72
